createdAt,value
2022-09-28T00:02:10.790Z,2.13
2022-09-28T00:04:39.584Z,0.70
2022-09-28T00:07:06.988Z,0.73
2022-09-28T00:09:34.437Z,1.05
2022-09-28T00:12:02.266Z,1.50
2022-09-28T00:14:32.197Z,0.52
2022-09-28T00:16:59.619Z,0.73
2022-09-28T00:19:27.114Z,0.63
2022-09-28T00:21:55.875Z,0.10
2022-09-28T00:24:27.517Z,0.82
2022-09-28T00:26:57.101Z,0.77
2022-09-28T00:29:27.145Z,0.35
2022-09-28T00:31:59.729Z,0.52
2022-09-28T00:34:28.006Z,1.02
2022-09-28T00:36:56.750Z,0.73
2022-09-28T00:39:24.509Z,0.20
2022-09-28T00:41:52.368Z,0.13
2022-09-28T00:44:42.490Z,1.00
2022-09-28T00:47:39.900Z,0.82
2022-09-28T00:50:12.346Z,0.65
2022-09-28T00:52:46.484Z,0.30
2022-09-28T00:55:17.051Z,1.88
2022-09-28T00:57:49.148Z,0.52
2022-09-28T01:00:17.249Z,0.20
2022-09-28T01:02:46.486Z,0.98
2022-09-28T01:05:15.232Z,0.50
2022-09-28T01:07:46.525Z,2.25
2022-09-28T01:10:15.017Z,0.70
2022-09-28T01:12:42.463Z,1.63
2022-09-28T01:15:10.928Z,0.80
2022-09-28T01:17:51.752Z,1.00
2022-09-28T01:20:35.299Z,0.20
2022-09-28T01:23:35.360Z,1.40
2022-09-28T01:26:50.482Z,2.10
2022-09-28T01:29:27.532Z,0.45
2022-09-28T01:32:02.574Z,1.23
2022-09-28T01:34:36.850Z,1.83
2022-09-28T01:37:10.681Z,1.47
2022-09-28T01:39:41.616Z,1.50
2022-09-28T01:42:12.935Z,0.98
2022-09-28T01:44:47.584Z,1.38
2022-09-28T01:47:18.983Z,1.27
2022-09-28T01:49:49.827Z,0.85
2022-09-28T01:52:22.738Z,2.53
2022-09-28T01:54:54.555Z,3.10
2022-09-28T01:57:27.619Z,2.53
2022-09-28T02:00:01.481Z,2.95
2022-09-28T02:02:34.256Z,1.93
2022-09-28T02:05:06.044Z,2.15
2022-09-28T02:07:38.191Z,1.38
2022-09-28T02:10:11.852Z,1.13
2022-09-28T02:12:44.888Z,2.17
2022-09-28T02:15:20.543Z,2.50
2022-09-28T02:17:48.575Z,2.63
2022-09-28T02:20:16.853Z,1.20
2022-09-28T02:22:48.490Z,0.95
2022-09-28T02:25:23.831Z,0.40
2022-09-28T02:27:57.885Z,2.30
2022-09-28T02:30:26.964Z,1.00
2022-09-28T02:32:58.015Z,1.30
2022-09-28T02:35:25.485Z,0.52
2022-09-28T02:37:53.411Z,1.10
2022-09-28T02:40:23.115Z,1.33
2022-09-28T02:43:00.707Z,1.58
2022-09-28T02:45:42.344Z,2.15
2022-09-28T02:48:35.961Z,1.15
2022-09-28T02:51:21.302Z,2.70
2022-09-28T02:54:13.451Z,0.53
2022-09-28T02:57:11.162Z,0.68
2022-09-28T02:59:50.353Z,1.17
2022-09-28T03:02:27.046Z,1.02
2022-09-28T03:05:07.070Z,2.28
2022-09-28T03:07:37.781Z,0.53
2022-09-28T03:10:10.925Z,0.68
2022-09-28T03:12:40.112Z,0.90
2022-09-28T03:15:10.364Z,1.73
2022-09-28T03:17:39.630Z,2.05
2022-09-28T03:20:08.155Z,1.30
2022-09-28T03:22:35.543Z,3.85
2022-09-28T03:25:02.944Z,1.73
2022-09-28T03:27:30.340Z,2.88
2022-09-28T03:29:57.741Z,3.97
2022-09-28T03:32:25.279Z,2.05
2022-09-28T03:34:54.283Z,2.83
2022-09-28T03:37:21.689Z,5.25
2022-09-28T03:39:49.150Z,2.70
2022-09-28T03:42:16.559Z,1.70
2022-09-28T03:44:43.957Z,3.33
2022-09-28T03:47:11.559Z,4.50
2022-09-28T03:49:39.088Z,2.35
2022-09-28T03:52:08.173Z,3.92
2022-09-28T03:54:35.589Z,2.47
2022-09-28T03:57:03.008Z,2.33
2022-09-28T03:59:30.635Z,2.42
2022-09-28T04:01:58.316Z,4.15
2022-09-28T04:04:25.728Z,4.38
2022-09-28T04:06:53.139Z,5.97
2022-09-28T04:09:21.900Z,2.47
2022-09-28T04:12:03.437Z,3.72
2022-09-28T04:14:31.832Z,5.55
2022-09-28T04:16:59.305Z,3.45
2022-09-28T04:19:26.693Z,3.30
2022-09-28T04:21:54.116Z,5.03
2022-09-28T04:24:22.887Z,5.07
2022-09-28T04:26:50.330Z,4.88
2022-09-28T04:29:16.951Z,4.40
2022-09-28T04:31:47.138Z,3.30
2022-09-28T04:34:17.233Z,3.35
2022-09-28T04:36:44.879Z,3.03
2022-09-28T04:39:12.420Z,3.58
2022-09-28T04:41:41.238Z,3.40
2022-09-28T04:44:08.927Z,5.88
2022-09-28T04:46:36.800Z,5.37
2022-09-28T04:49:04.556Z,4.90
2022-09-28T04:51:32.667Z,6.50
2022-09-28T04:54:00.136Z,6.38
2022-09-28T04:56:28.300Z,4.85
2022-09-28T04:58:57.009Z,3.00
2022-09-28T05:01:24.542Z,3.83
2022-09-28T05:03:51.985Z,3.60
2022-09-28T05:06:19.378Z,4.32
2022-09-28T05:08:47.621Z,2.83
2022-09-28T05:11:15.746Z,4.50
2022-09-28T05:13:45.189Z,2.92
2022-09-28T05:16:15.749Z,5.32
2022-09-28T05:18:43.534Z,4.10
2022-09-28T05:21:12.674Z,5.63
2022-09-28T05:23:40.513Z,5.20
2022-09-28T05:26:08.429Z,4.78
2022-09-28T05:28:35.815Z,5.80
2022-09-28T05:31:04.984Z,3.15
2022-09-28T05:33:34.337Z,3.17
2022-09-28T05:36:02.177Z,4.80
2022-09-28T05:38:29.754Z,5.38
2022-09-28T05:40:57.297Z,3.53
2022-09-28T05:43:24.911Z,3.65
2022-09-28T05:45:55.632Z,3.97
2022-09-28T05:48:23.700Z,3.73
2022-09-28T05:50:53.466Z,5.53
2022-09-28T05:53:21.172Z,5.15
2022-09-28T05:55:49.102Z,2.72
2022-09-28T05:58:16.961Z,3.45
2022-09-28T06:00:44.663Z,6.15
2022-09-28T06:03:13.765Z,4.25
2022-09-28T06:05:41.616Z,5.45
2022-09-28T06:08:11.528Z,4.82
2022-09-28T06:10:39.330Z,3.97
2022-09-28T06:13:07.160Z,3.88
2022-09-28T06:15:36.154Z,3.35
2022-09-28T06:18:06.415Z,3.70
2022-09-28T06:20:36.181Z,4.20
2022-09-28T06:23:04.125Z,4.63
2022-09-28T06:25:33.033Z,4.57
2022-09-28T06:28:04.321Z,6.25
2022-09-28T06:30:33.955Z,4.88
2022-09-28T06:33:02.755Z,4.05
2022-09-28T06:35:31.390Z,12.13
2022-09-28T06:37:59.880Z,4.77
2022-09-28T06:40:28.223Z,3.35
2022-09-28T06:42:58.675Z,5.30
2022-09-28T06:45:27.067Z,5.93
2022-09-28T06:47:56.517Z,5.97
2022-09-28T06:50:24.066Z,5.37
2022-09-28T06:52:53.284Z,3.78
2022-09-28T06:55:20.933Z,2.97
2022-09-28T06:57:48.700Z,4.55
2022-09-28T07:00:17.760Z,5.45
2022-09-28T07:02:45.164Z,5.13
2022-09-28T07:05:14.471Z,4.15
2022-09-28T07:07:44.652Z,2.92
2022-09-28T07:10:12.746Z,3.78
2022-09-28T07:12:40.496Z,3.90
2022-09-28T07:15:09.228Z,3.60
2022-09-28T07:17:52.971Z,3.08
2022-09-28T07:20:22.213Z,2.92
2022-09-28T07:22:53.924Z,5.25
2022-09-28T07:25:21.425Z,3.63
2022-09-28T07:27:48.817Z,3.87
2022-09-28T07:30:17.037Z,3.63
2022-09-28T07:32:48.276Z,4.03
2022-09-28T07:35:15.999Z,4.05
2022-09-28T07:37:43.402Z,3.05
2022-09-28T07:40:29.077Z,2.67
2022-09-28T07:42:56.689Z,2.83
2022-09-28T07:45:24.702Z,2.63
2022-09-28T07:47:56.196Z,2.53
2022-09-28T07:50:23.707Z,3.88
2022-09-28T07:52:51.114Z,2.87
2022-09-28T07:55:18.511Z,2.05
2022-09-28T07:57:46.928Z,2.08
2022-09-28T08:00:15.568Z,2.35
2022-09-28T08:02:42.991Z,2.67
2022-09-28T08:05:12.363Z,1.53
2022-09-28T08:07:39.752Z,2.80
2022-09-28T08:10:07.867Z,10.18
2022-09-28T08:12:35.798Z,1.52
2022-09-28T08:15:04.335Z,2.05
2022-09-28T08:17:31.711Z,4.03
2022-09-28T08:20:16.390Z,1.73
2022-09-28T08:22:45.205Z,1.67
2022-09-28T08:25:12.627Z,2.10
2022-09-28T08:27:40.079Z,2.70
2022-09-28T08:30:08.812Z,1.70
2022-09-28T08:32:36.580Z,1.23
2022-09-28T08:35:04.265Z,2.05
2022-09-28T08:37:31.670Z,3.80
2022-09-28T08:40:00.386Z,1.27
2022-09-28T08:42:34.873Z,1.87
2022-09-28T08:45:08.801Z,2.28
2022-09-28T08:48:09.386Z,2.35
2022-09-28T08:50:42.531Z,0.82
2022-09-28T08:53:28.747Z,2.08
2022-09-28T08:55:59.796Z,1.60
2022-09-28T08:58:33.575Z,1.15
2022-09-28T09:01:03.073Z,0.80
2022-09-28T09:03:34.010Z,0.77
2022-09-28T09:06:10.355Z,1.95
2022-09-28T09:08:49.945Z,0.70
2022-09-28T09:11:34.014Z,0.88
2022-09-28T09:14:13.826Z,0.98
2022-09-28T09:16:51.141Z,2.58
2022-09-28T09:19:35.384Z,3.22
2022-09-28T09:22:16.255Z,1.20
2022-09-28T09:24:50.687Z,1.55
2022-09-28T09:27:42.040Z,1.92
2022-09-28T09:30:12.699Z,2.30
2022-09-28T09:32:57.056Z,2.72
2022-09-28T09:35:40.459Z,1.10
2022-09-28T09:38:27.702Z,0.90
2022-09-28T09:41:11.530Z,1.13
2022-09-28T09:43:58.730Z,1.10
2022-09-28T09:46:36.134Z,0.73
2022-09-28T09:49:11.394Z,0.40
2022-09-28T09:51:44.544Z,2.25
2022-09-28T09:54:19.643Z,1.30
2022-09-28T09:56:53.632Z,0.80
2022-09-28T09:59:25.889Z,0.40
2022-09-28T10:01:54.467Z,0.93
2022-09-28T10:04:26.990Z,5.32
2022-09-28T10:06:59.860Z,3.08
2022-09-28T10:09:31.772Z,1.40
2022-09-28T10:11:59.262Z,0.80
2022-09-28T10:14:28.403Z,1.50
2022-09-28T10:16:58.744Z,1.70
2022-09-28T10:19:31.655Z,1.15
2022-09-28T10:22:02.516Z,1.65
2022-09-28T10:24:33.095Z,0.43
2022-09-28T10:27:06.437Z,0.43
2022-09-28T10:29:43.776Z,0.85
2022-09-28T10:32:23.734Z,2.13
2022-09-28T10:34:52.434Z,0.75
2022-09-28T10:37:20.446Z,1.48
2022-09-28T10:39:53.124Z,1.80
2022-09-28T10:42:23.531Z,0.68
2022-09-28T10:45:00.083Z,1.65
2022-09-28T10:47:32.475Z,0.82
2022-09-28T10:50:00.758Z,1.17
2022-09-28T10:52:36.949Z,0.90
2022-09-28T10:55:24.959Z,1.85
2022-09-28T10:57:52.911Z,1.50
2022-09-28T11:00:38.537Z,0.90
2022-09-28T11:03:06.188Z,1.33
2022-09-28T11:05:33.812Z,1.97
2022-09-28T11:08:07.994Z,1.33
2022-09-28T11:10:35.663Z,2.42
2022-09-28T11:13:03.049Z,1.73
2022-09-28T11:15:32.896Z,1.55
2022-09-28T11:18:21.082Z,1.50
2022-09-28T11:20:49.417Z,1.85
2022-09-28T11:23:20.624Z,5.03
2022-09-28T11:25:59.667Z,3.25
2022-09-28T11:28:32.615Z,2.10
2022-09-28T11:31:01.331Z,1.47
2022-09-28T11:33:36.038Z,1.45
2022-09-28T11:36:22.140Z,0.55
2022-09-28T11:39:01.015Z,1.77
2022-09-28T11:41:43.729Z,1.00
2022-09-28T11:44:44.540Z,1.73
2022-09-28T11:47:30.072Z,1.13
2022-09-28T11:50:06.385Z,3.30
2022-09-28T11:52:40.193Z,4.65
2022-09-28T11:55:15.256Z,1.85
2022-09-28T11:57:47.302Z,1.43
2022-09-28T12:00:17.412Z,2.15
2022-09-28T12:02:51.931Z,1.85
2022-09-28T12:05:26.755Z,1.50
2022-09-28T12:07:57.755Z,1.10
2022-09-28T12:10:42.166Z,1.77
2022-09-28T12:13:17.263Z,2.75
2022-09-28T12:16:20.062Z,4.78
2022-09-28T12:18:45.835Z,1.02
2022-09-28T12:21:28.652Z,3.22
2022-09-28T12:24:07.713Z,2.83
2022-09-28T12:26:42.623Z,2.13
2022-09-28T12:29:15.132Z,2.63
2022-09-28T12:31:54.715Z,2.90
2022-09-28T12:34:23.220Z,2.38
2022-09-28T12:37:05.503Z,3.87
2022-09-28T12:40:01.335Z,3.30
2022-09-28T12:42:53.518Z,1.60
2022-09-28T12:45:47.902Z,5.60
2022-09-28T12:48:37.788Z,1.92
2022-09-28T12:51:15.923Z,5.37
2022-09-28T12:54:14.788Z,2.95
2022-09-28T12:56:57.969Z,2.00
2022-09-28T12:59:31.766Z,2.13
2022-09-28T13:02:22.215Z,2.10
2022-09-28T13:05:13.366Z,2.50
2022-09-28T13:07:50.554Z,2.05
2022-09-28T13:10:32.570Z,3.60
2022-09-28T13:13:19.204Z,1.25
2022-09-28T13:15:52.975Z,1.60
2022-09-28T13:18:29.152Z,4.70
2022-09-28T13:21:15.972Z,2.40
2022-09-28T13:23:45.751Z,1.95
2022-09-28T13:26:24.031Z,4.95
2022-09-28T13:28:54.657Z,2.72
2022-09-28T13:31:30.873Z,1.33
2022-09-28T13:34:02.884Z,1.38
2022-09-28T13:36:45.843Z,2.67
2022-09-28T13:39:48.676Z,3.47
2022-09-28T13:42:29.132Z,2.35
2022-09-28T13:45:37.118Z,2.90
2022-09-28T13:48:15.268Z,3.38
2022-09-28T13:51:16.172Z,2.83
2022-09-28T13:54:16.868Z,3.60
2022-09-28T13:56:54.940Z,4.80
2022-09-28T13:59:27.614Z,3.40
2022-09-28T14:02:06.947Z,3.67
2022-09-28T14:04:54.292Z,2.78
2022-09-28T14:07:25.351Z,6.00
2022-09-28T14:10:17.232Z,6.28
2022-09-28T14:12:47.217Z,2.57
2022-09-28T14:15:40.716Z,5.65
2022-09-28T14:18:20.803Z,6.13
2022-09-28T14:21:04.127Z,4.80
2022-09-28T14:23:47.561Z,4.18
2022-09-28T14:26:46.922Z,4.53
2022-09-28T14:29:28.430Z,3.55
2022-09-28T14:31:59.073Z,4.80
2022-09-28T14:34:36.088Z,1.92
2022-09-28T14:37:23.416Z,2.80
2022-09-28T14:40:09.327Z,3.43
2022-09-28T14:42:37.048Z,2.67
2022-09-28T14:45:35.916Z,4.85
2022-09-28T14:48:16.378Z,3.22
2022-09-28T14:50:43.795Z,6.20
2022-09-28T14:53:13.900Z,4.77
2022-09-28T14:55:50.122Z,4.55
2022-09-28T14:58:22.499Z,4.22
2022-09-28T15:00:56.596Z,3.65
2022-09-28T15:03:29.802Z,4.50
2022-09-28T15:05:57.519Z,6.47
2022-09-28T15:08:36.960Z,5.40
2022-09-28T15:11:04.545Z,4.75
2022-09-28T15:13:31.997Z,4.72
2022-09-28T15:16:04.460Z,4.72
2022-09-28T15:19:04.051Z,4.73
2022-09-28T15:21:37.332Z,4.82
2022-09-28T15:24:24.769Z,4.85
2022-09-28T15:26:53.048Z,5.90
2022-09-28T15:29:22.657Z,3.90
2022-09-28T15:31:54.281Z,3.87
2022-09-28T15:34:48.666Z,4.18
2022-09-28T15:37:21.877Z,2.70
2022-09-28T15:39:50.922Z,2.00
2022-09-28T15:42:19.284Z,2.20
2022-09-28T15:45:06.007Z,3.63
2022-09-28T15:47:33.655Z,1.67
2022-09-28T15:50:05.001Z,3.13
2022-09-28T15:52:36.964Z,2.47
2022-09-28T15:55:07.035Z,4.55
2022-09-28T15:57:38.106Z,3.50
2022-09-28T16:00:22.703Z,6.15
2022-09-28T16:03:01.541Z,2.60
2022-09-28T16:05:39.126Z,5.18
2022-09-28T16:08:14.779Z,1.80
2022-09-28T16:10:55.105Z,1.50
2022-09-28T16:13:23.832Z,3.15
2022-09-28T16:15:57.770Z,2.25
2022-09-28T16:18:26.435Z,2.53
2022-09-28T16:20:57.016Z,1.77
2022-09-28T16:23:27.712Z,3.43
2022-09-28T16:26:00.074Z,1.65
2022-09-28T16:28:51.522Z,1.55
2022-09-28T16:31:28.155Z,2.10
2022-09-28T16:33:58.871Z,2.17
2022-09-28T16:36:30.102Z,1.80
2022-09-28T16:38:57.680Z,3.40
2022-09-28T16:41:28.801Z,2.55
2022-09-28T16:44:00.883Z,1.83
2022-09-28T16:46:33.601Z,2.10
2022-09-28T16:49:02.889Z,2.60
2022-09-28T16:51:32.395Z,4.13
2022-09-28T16:54:19.959Z,2.72
2022-09-28T16:56:47.449Z,3.60
2022-09-28T16:59:14.947Z,4.55
2022-09-28T17:01:43.810Z,2.13
2022-09-28T17:04:11.970Z,3.38
2022-09-28T17:06:40.734Z,3.90
2022-09-28T17:09:14.103Z,3.13
2022-09-28T17:11:41.485Z,4.15
2022-09-28T17:14:09.316Z,3.10
2022-09-28T17:19:28.687Z,3.95
2022-09-28T17:21:57.446Z,3.08
2022-09-28T17:24:24.895Z,4.40
2022-09-28T17:26:53.152Z,3.43
2022-09-28T17:29:21.014Z,2.42
2022-09-28T17:31:48.722Z,6.53
2022-09-28T17:34:16.952Z,7.50
2022-09-28T17:36:45.569Z,4.35
2022-09-28T17:39:16.805Z,3.27
2022-09-28T17:41:44.355Z,9.15
2022-09-28T17:44:15.830Z,4.28
2022-09-28T17:46:48.374Z,7.97
2022-09-28T17:49:16.900Z,5.57
2022-09-28T17:51:44.356Z,6.10
2022-09-28T17:54:12.837Z,5.85
2022-09-28T17:56:42.305Z,7.25
2022-09-28T17:59:14.320Z,4.93
2022-09-28T18:01:41.953Z,4.93
2022-09-28T18:04:22.997Z,5.27
2022-09-28T18:06:59.409Z,5.43
2022-09-28T18:09:26.884Z,3.15
2022-09-28T18:12:00.486Z,5.57
2022-09-28T18:14:28.298Z,5.72
2022-09-28T18:16:55.756Z,3.97
2022-09-28T18:19:23.215Z,3.75
2022-09-28T18:21:50.661Z,5.20
2022-09-28T18:24:18.214Z,3.58
2022-09-28T18:26:45.807Z,4.75
2022-09-28T18:29:14.580Z,4.27
2022-09-28T18:31:42.041Z,6.07
2022-09-28T18:34:10.765Z,4.93
2022-09-28T18:36:38.270Z,4.00
2022-09-28T18:39:05.724Z,5.63
2022-09-28T18:41:33.323Z,4.53
2022-09-28T18:44:01.376Z,6.22
2022-09-28T18:46:31.265Z,3.42
2022-09-28T18:48:58.803Z,7.28
2022-09-28T18:51:26.350Z,7.55
2022-09-28T18:53:53.775Z,4.87
2022-09-28T18:56:21.781Z,6.70
2022-09-28T18:58:49.721Z,5.75
2022-09-28T19:01:30.089Z,4.75
2022-09-28T19:04:01.329Z,7.28
2022-09-28T19:06:29.670Z,5.93
2022-09-28T19:08:57.274Z,8.18
2022-09-28T19:11:25.675Z,14.77
2022-09-28T19:13:54.361Z,30.73
2022-09-28T19:16:23.991Z,19.13
2022-09-28T19:18:52.288Z,6.37
2022-09-28T19:21:21.265Z,6.80
2022-09-28T19:23:50.036Z,11.10
2022-09-28T19:26:20.285Z,7.82
2022-09-28T19:28:47.746Z,8.25
2022-09-28T19:31:15.241Z,5.93
2022-09-28T19:33:43.670Z,7.20
2022-09-28T19:36:14.402Z,5.90
2022-09-28T19:38:43.292Z,4.57
2022-09-28T19:41:11.260Z,5.53
2022-09-28T19:43:43.558Z,4.40
2022-09-28T19:46:12.638Z,7.82
2022-09-28T19:48:41.145Z,6.47
2022-09-28T19:51:10.108Z,4.45
2022-09-28T19:53:37.589Z,5.68
2022-09-28T19:56:06.896Z,5.03
2022-09-28T19:58:36.296Z,7.55
2022-09-28T20:01:06.511Z,5.53
2022-09-28T20:03:34.001Z,8.30
2022-09-28T20:06:02.565Z,7.80
2022-09-28T20:08:30.893Z,5.47
2022-09-28T20:10:59.725Z,4.20
2022-09-28T20:13:32.724Z,4.30
2022-09-28T20:16:04.454Z,5.07
2022-09-28T20:18:34.400Z,4.70
2022-09-28T20:21:02.983Z,3.40
2022-09-28T20:23:31.245Z,3.63
2022-09-28T20:25:58.852Z,4.90
2022-09-28T20:28:26.277Z,5.25
2022-09-28T20:30:55.442Z,5.30
2022-09-28T20:33:28.582Z,5.23
2022-09-28T20:35:56.486Z,7.15
2022-09-28T20:38:24.002Z,5.97
2022-09-28T20:40:51.430Z,6.88
2022-09-28T20:43:18.949Z,5.55
2022-09-28T20:45:46.332Z,6.55
2022-09-28T20:48:15.223Z,5.40
2022-09-28T20:50:43.255Z,4.05
2022-09-28T20:53:10.665Z,5.28
2022-09-28T20:55:38.070Z,7.32
2022-09-28T20:58:05.496Z,6.27
2022-09-28T21:00:33.046Z,7.82
2022-09-28T21:03:00.452Z,6.22
2022-09-28T21:05:30.548Z,6.22
2022-09-28T21:07:59.123Z,7.00
2022-09-28T21:10:30.204Z,8.73
2022-09-28T21:12:57.640Z,8.10
2022-09-28T21:15:25.139Z,5.68
2022-09-28T21:17:52.582Z,6.05
2022-09-28T21:20:19.973Z,5.22
2022-09-28T21:22:48.696Z,6.10
2022-09-28T21:25:16.205Z,5.85
2022-09-28T21:27:44.683Z,5.45
2022-09-28T21:30:13.053Z,7.65
2022-09-28T21:32:40.468Z,7.65
2022-09-28T21:35:08.627Z,6.45
2022-09-28T21:37:36.037Z,6.65
2022-09-28T21:40:09.402Z,5.72
2022-09-28T21:42:36.791Z,7.38
2022-09-28T21:45:04.721Z,5.85
2022-09-28T21:47:32.132Z,6.80
2022-09-28T21:49:59.565Z,5.72
2022-09-28T21:52:27.294Z,7.38
2022-09-28T21:54:54.995Z,6.45
2022-09-28T21:57:23.855Z,6.93
2022-09-28T21:59:51.251Z,5.73
2022-09-28T22:02:19.010Z,6.60
2022-09-28T22:04:46.438Z,5.53
2022-09-28T22:07:13.836Z,6.22
2022-09-28T22:09:41.256Z,5.90
2022-09-28T22:12:08.708Z,6.22
2022-09-28T22:14:37.453Z,8.55
2022-09-28T22:17:04.877Z,7.70
2022-09-28T22:19:32.300Z,7.22
2022-09-28T22:21:59.704Z,6.43
2022-09-28T22:24:27.184Z,7.65
2022-09-28T22:26:54.695Z,6.05
2022-09-28T22:29:22.456Z,8.70
2022-09-28T22:31:51.273Z,6.75
2022-09-28T22:34:18.929Z,6.82
2022-09-28T22:36:46.433Z,5.10
2022-09-28T22:39:14.598Z,6.93
2022-09-28T22:41:42.008Z,8.18
2022-09-28T22:44:09.409Z,7.28
2022-09-28T22:46:36.885Z,6.18
2022-09-28T22:49:05.941Z,7.15
2022-09-28T22:51:33.352Z,5.95
2022-09-28T22:54:01.080Z,5.82
2022-09-28T22:56:28.780Z,6.22
2022-09-28T22:58:56.368Z,6.75
2022-09-28T23:01:25.505Z,7.05
2022-09-28T23:03:53.983Z,7.50
2022-09-28T23:06:25.828Z,6.22
2022-09-28T23:08:53.912Z,6.82
2022-09-28T23:11:21.444Z,6.63
2022-09-28T23:13:52.618Z,9.47
2022-09-28T23:16:22.768Z,8.00
2022-09-28T23:18:50.240Z,10.93
2022-09-28T23:21:19.308Z,7.38
2022-09-28T23:23:53.094Z,7.25
2022-09-28T23:26:23.442Z,7.18
2022-09-28T23:28:51.680Z,7.22
2022-09-28T23:31:21.052Z,9.90
2022-09-28T23:33:48.683Z,8.75
2022-09-28T23:36:16.884Z,8.30
2022-09-28T23:38:44.585Z,7.03
2022-09-28T23:41:13.290Z,7.32
2022-09-28T23:43:40.735Z,9.65
2022-09-28T23:46:08.226Z,8.60
2022-09-28T23:48:35.711Z,8.30
2022-09-28T23:51:03.916Z,6.80
2022-09-28T23:53:32.095Z,8.00
2022-09-28T23:55:59.646Z,9.18
2022-09-28T23:58:28.488Z,6.20
